Time;durP1;ratioP1;P1;durP2;ratioP2;P2;SDS_P1;SDS_P2;PMS_P1;PMS_P2;Temp;Humidity;BMP_temperature;BMP_pressure;BME280_temperature;BME280_humidity;BME280_pressure;Samples;Min_cycle;Max_cycle;Signal;HPM_P1;HPM_P2
2021/12/07 00:01:24;;;;;;;128.27;48.92;;;;;;;;;;5095161;28;20031;-68
2021/12/07 00:03:52;;;;;;;114.68;47.65;;;;;;;;;;5095393;28;20413;-67
2021/12/07 00:06:20;;;;;;;127.78;48.03;;;;;;;;;;5098954;28;20078;-68
2021/12/07 00:08:51;;;;;;;126.85;47.72;;;;;;;;;;5098866;28;20032;-67
2021/12/07 00:11:19;;;;;;;117.25;47.45;;;;;;;;;;5097757;28;20016;-68
2021/12/07 00:13:47;;;;;;;121.30;48.63;;;;;;;;;;5098809;28;20048;-68
2021/12/07 00:16:19;;;;;;;114.35;49.38;;;;;;;;;;5097759;28;20031;-68
2021/12/07 00:18:47;;;;;;;123.03;48.67;;;;;;;;;;5098768;28;20306;-67
2021/12/07 00:21:17;;;;;;;122.88;48.40;;;;;;;;;;5097533;28;20048;-67
2021/12/07 00:23:45;;;;;;;117.88;46.90;;;;;;;;;;5098668;28;20363;-66
2021/12/07 00:26:13;;;;;;;129.05;43.83;;;;;;;;;;5098511;28;20024;-67
2021/12/07 00:28:40;;;;;;;116.63;43.92;;;;;;;;;;5098440;28;20374;-67
2021/12/07 00:31:37;;;;;;;112.50;44.58;;;;;;;;;;5098466;28;20103;-67
2021/12/07 00:34:10;;;;;;;127.88;48.67;;;;;;;;;;5056094;28;20082;-67
2021/12/07 00:36:44;;;;;;;134.35;49.83;;;;;;;;;;5039221;28;20029;-68
2021/12/07 00:39:13;;;;;;;136.38;55.10;;;;;;;;;;5055962;28;20048;-68
2021/12/07 00:41:40;;;;;;;111.70;51.42;;;;;;;;;;5039412;28;20036;-68
2021/12/07 00:44:08;;;;;;;111.38;50.10;;;;;;;;;;5055958;28;20033;-68
2021/12/07 00:46:36;;;;;;;105.15;46.58;;;;;;;;;;5055967;28;20342;-68
2021/12/07 00:49:04;;;;;;;124.43;51.13;;;;;;;;;;5039146;28;20025;-68
2021/12/07 00:51:32;;;;;;;121.85;46.25;;;;;;;;;;5055853;28;20034;-68
2021/12/07 00:53:59;;;;;;;126.03;47.33;;;;;;;;;;5039168;28;20029;-68
2021/12/07 00:56:27;;;;;;;108.80;44.08;;;;;;;;;;5039179;28;20336;-68
2021/12/07 00:58:54;;;;;;;103.80;43.92;;;;;;;;;;5055571;28;20144;-68
2021/12/07 01:01:22;;;;;;;105.22;42.58;;;;;;;;;;5055677;28;20033;-68
2021/12/07 01:03:50;;;;;;;110.38;42.20;;;;;;;;;;5055629;28;20332;-68
2021/12/07 01:25:11;;;;;;;117.28;46.30;;;;;;;;;;5077496;28;20116;-69
2021/12/07 01:27:39;;;;;;;129.63;46.40;;;;;;;;;;5077054;28;20025;-67
2021/12/07 01:30:17;;;;;;;133.27;51.72;;;;;;;;;;5077037;28;20025;-67
2021/12/07 01:33:12;;;;;;;123.43;48.60;;;;;;;;;;5077021;28;20021;-67
2021/12/07 01:36:02;;;;;;;151.32;56.25;;;;;;;;;;5075772;28;20478;-68
2021/12/07 01:52:10;;;;;;;142.68;53.63;;;;;;;;;;5076215;28;20031;-67
2021/12/07 02:00:12;;;;;;;158.50;66.93;;;;;;;;;;5094372;28;20382;-70
2021/12/07 02:02:43;;;;;;;165.95;66.50;;;;;;;;;;5095048;28;20063;-70
2021/12/07 02:05:11;;;;;;;213.32;92.38;;;;;;;;;;5096301;28;20358;-72
2021/12/07 02:07:39;;;;;;;209.77;86.07;;;;;;;;;;5094929;28;20031;-67
2021/12/07 02:10:14;;;;;;;202.85;89.47;;;;;;;;;;5094905;28;20080;-68
2021/12/07 02:12:43;;;;;;;202.82;82.68;;;;;;;;;;5096434;28;20378;-67
2021/12/07 02:15:13;;;;;;;234.32;92.35;;;;;;;;;;5096063;28;20047;-68
2021/12/07 02:17:40;;;;;;;241.82;109.65;;;;;;;;;;5095188;28;20031;-68
2021/12/07 02:20:12;;;;;;;218.13;96.28;;;;;;;;;;5096199;28;20020;-68
2021/12/07 02:22:40;;;;;;;239.88;101.93;;;;;;;;;;5096015;28;20031;-67
2021/12/07 02:25:09;;;;;;;267.33;116.53;;;;;;;;;;5096035;28;20104;-66
2021/12/07 02:27:38;;;;;;;256.20;115.13;;;;;;;;;;5095336;28;20020;-67
2021/12/07 02:30:07;;;;;;;223.82;102.53;;;;;;;;;;5094981;28;20077;-68
2021/12/07 02:32:34;;;;;;;328.98;144.70;;;;;;;;;;5095979;28;20027;-67
2021/12/07 02:35:02;;;;;;;327.35;139.55;;;;;;;;;;5093699;28;20039;-67
2021/12/07 02:37:35;;;;;;;293.35;125.97;;;;;;;;;;5093785;28;20020;-69
2021/12/07 02:40:08;;;;;;;273.10;129.48;;;;;;;;;;5094588;28;20024;-67
2021/12/07 02:42:36;;;;;;;325.15;144.68;;;;;;;;;;5095221;28;20430;-65
2021/12/07 02:45:05;;;;;;;317.38;141.57;;;;;;;;;;5095591;28;20103;-65
2021/12/07 02:47:36;;;;;;;281.25;130.00;;;;;;;;;;5095236;28;20497;-67
2021/12/07 02:50:05;;;;;;;273.63;129.80;;;;;;;;;;5095542;28;20146;-66
2021/12/07 02:52:40;;;;;;;282.58;127.15;;;;;;;;;;5095385;28;20429;-66
2021/12/07 02:55:08;;;;;;;261.85;112.18;;;;;;;;;;5090666;28;20028;-65
2021/12/07 02:57:35;;;;;;;226.45;102.70;;;;;;;;;;5075056;28;20048;-66
2021/12/07 03:00:12;;;;;;;223.27;95.97;;;;;;;;;;5090807;28;20089;-70
2021/12/07 03:02:47;;;;;;;215.60;97.88;;;;;;;;;;5075279;28;20016;-67
2021/12/07 03:27:10;;;;;;;351.25;167.68;;;;;;;;;;5096738;28;20032;-66
2021/12/07 03:29:38;;;;;;;320.63;142.95;;;;;;;;;;5097399;28;20035;-67
2021/12/07 03:32:10;;;;;;;300.60;127.32;;;;;;;;;;5080299;28;20052;-67
2021/12/07 03:34:38;;;;;;;286.38;123.80;;;;;;;;;;5081361;28;20027;-69
2021/12/07 03:37:06;;;;;;;294.10;128.70;;;;;;;;;;5083728;28;20035;-69
2021/12/07 03:39:34;;;;;;;319.42;136.25;;;;;;;;;;5086646;28;20035;-67
2021/12/07 03:42:01;;;;;;;319.05;134.40;;;;;;;;;;5083362;28;20078;-70
2021/12/07 03:44:30;;;;;;;306.35;126.40;;;;;;;;;;5080965;28;20048;-68
2021/12/07 03:46:57;;;;;;;290.15;127.55;;;;;;;;;;5080892;28;20055;-68
2021/12/07 03:49:25;;;;;;;282.15;121.13;;;;;;;;;;5080697;28;20028;-67
2021/12/07 03:51:52;;;;;;;279.75;121.35;;;;;;;;;;5080739;28;20049;-67
2021/12/07 03:54:20;;;;;;;297.95;128.50;;;;;;;;;;5080031;28;20021;-66
2021/12/07 03:56:46;;;;;;;309.52;133.82;;;;;;;;;;5080102;28;20099;-68
2021/12/07 03:59:14;;;;;;;302.65;127.43;;;;;;;;;;5081377;28;20032;-66
2021/12/07 04:01:42;;;;;;;295.75;129.88;;;;;;;;;;5082518;28;20025;-66
2021/12/07 04:04:09;;;;;;;345.20;153.23;;;;;;;;;;5078677;28;20036;-68
2021/12/07 04:06:37;;;;;;;383.92;153.60;;;;;;;;;;5081017;28;20500;-68
2021/12/07 04:09:05;;;;;;;378.05;155.85;;;;;;;;;;5094437;28;20036;-68
2021/12/07 04:11:32;;;;;;;411.10;172.25;;;;;;;;;;5098312;28;20020;-68
2021/12/07 04:14:00;;;;;;;411.27;165.95;;;;;;;;;;5097704;28;20032;-66
2021/12/07 04:16:27;;;;;;;400.38;164.23;;;;;;;;;;5096025;28;20035;-68
2021/12/07 04:18:55;;;;;;;393.38;168.48;;;;;;;;;;5089390;28;20023;-68
2021/12/07 04:21:23;;;;;;;363.35;163.82;;;;;;;;;;5098698;28;20027;-68
2021/12/07 04:23:50;;;;;;;344.75;162.18;;;;;;;;;;5092279;28;20134;-67
2021/12/07 04:26:18;;;;;;;387.65;176.55;;;;;;;;;;5093624;28;20412;-67
2021/12/07 04:28:46;;;;;;;383.45;168.48;;;;;;;;;;5093768;28;20035;-67
2021/12/07 04:31:17;;;;;;;390.00;175.13;;;;;;;;;;5095697;28;20043;-67
2021/12/07 04:33:45;;;;;;;372.17;170.75;;;;;;;;;;5097691;28;20047;-68
2021/12/07 04:36:15;;;;;;;382.80;164.93;;;;;;;;;;5098055;28;20032;-67
2021/12/07 04:38:42;;;;;;;323.20;133.85;;;;;;;;;;5097769;28;20089;-69
2021/12/07 04:41:10;;;;;;;295.80;120.97;;;;;;;;;;5097407;28;20431;-70
2021/12/07 04:43:39;;;;;;;320.13;132.05;;;;;;;;;;5095308;28;20028;-69
2021/12/07 04:59:34;;;;;;;388.65;152.00;;;;;;;;;;5095345;28;20488;-67
2021/12/07 05:02:01;;;;;;;377.08;146.52;;;;;;;;;;5096919;28;20103;-66
2021/12/07 05:04:32;;;;;;;365.73;143.63;;;;;;;;;;5099085;28;20020;-66
2021/12/07 05:07:13;;;;;;;380.02;147.45;;;;;;;;;;5091614;28;20048;-66
2021/12/07 05:14:44;;;;;;;291.63;111.32;;;;;;;;;;5096446;28;20028;-67
2021/12/07 05:38:52;;;;;;;230.93;86.75;;;;;;;;;;5075542;28;20103;-67
2021/12/07 05:41:20;;;;;;;261.92;89.95;;;;;;;;;;5075026;28;20028;-66
2021/12/07 05:43:47;;;;;;;235.82;89.55;;;;;;;;;;5059027;28;20459;-66
2021/12/07 05:46:15;;;;;;;244.70;90.88;;;;;;;;;;5074667;28;20142;-67
2021/12/07 05:48:43;;;;;;;296.40;116.60;;;;;;;;;;5074132;28;20048;-67
2021/12/07 05:51:10;;;;;;;290.65;112.95;;;;;;;;;;5074268;28;20024;-67
2021/12/07 05:53:38;;;;;;;327.45;124.97;;;;;;;;;;5053755;28;20330;-67
2021/12/07 05:56:07;;;;;;;419.27;153.48;;;;;;;;;;5054323;28;20039;-68
2021/12/07 05:58:33;;;;;;;483.73;172.55;;;;;;;;;;5040170;28;20057;-66
2021/12/07 06:01:01;;;;;;;476.88;171.05;;;;;;;;;;5054126;28;20053;-67
2021/12/07 06:03:28;;;;;;;474.23;174.57;;;;;;;;;;5053518;28;20112;-64
2021/12/07 06:06:00;;;;;;;429.80;154.88;;;;;;;;;;5053757;28;20151;-65
2021/12/07 06:08:28;;;;;;;461.52;153.48;;;;;;;;;;5066088;28;20182;-66
2021/12/07 06:10:55;;;;;;;449.75;160.40;;;;;;;;;;5054782;28;20470;-66
2021/12/07 06:13:23;;;;;;;462.35;163.85;;;;;;;;;;5089605;28;20031;-67
2021/12/07 06:15:50;;;;;;;422.45;146.90;;;;;;;;;;5096262;28;20087;-65
2021/12/07 06:18:17;;;;;;;441.52;149.95;;;;;;;;;;5095260;28;20032;-65
2021/12/07 06:20:45;;;;;;;422.48;151.25;;;;;;;;;;5095955;28;20035;-66
2021/12/07 06:23:17;;;;;;;430.15;143.68;;;;;;;;;;5096470;28;20028;-66
2021/12/07 06:25:48;;;;;;;426.90;143.48;;;;;;;;;;5096055;28;20024;-65
2021/12/07 06:28:16;;;;;;;465.83;158.40;;;;;;;;;;5096115;28;20111;-67
2021/12/07 06:30:45;;;;;;;432.40;148.00;;;;;;;;;;5095629;28;20032;-65
2021/12/07 06:33:13;;;;;;;444.80;149.13;;;;;;;;;;5093706;28;20028;-65
2021/12/07 06:35:41;;;;;;;481.98;157.15;;;;;;;;;;5088288;28;20085;-67
2021/12/07 06:38:09;;;;;;;450.98;149.38;;;;;;;;;;5096469;28;20107;-64
2021/12/07 06:40:36;;;;;;;439.98;148.93;;;;;;;;;;5095413;28;20421;-65
2021/12/07 06:43:04;;;;;;;426.85;150.05;;;;;;;;;;5094328;28;20371;-66
2021/12/07 06:45:35;;;;;;;468.30;155.43;;;;;;;;;;5095839;28;20028;-66
2021/12/07 06:48:02;;;;;;;459.35;156.73;;;;;;;;;;5096472;28;20054;-66
2021/12/07 06:50:30;;;;;;;447.23;151.50;;;;;;;;;;5095398;28;20086;-66
2021/12/07 06:52:57;;;;;;;408.10;149.85;;;;;;;;;;5094975;28;20099;-65
2021/12/07 06:55:25;;;;;;;427.30;150.70;;;;;;;;;;5095251;28;20024;-66
2021/12/07 06:57:52;;;;;;;449.92;152.77;;;;;;;;;;5095186;28;20044;-65
2021/12/07 07:00:20;;;;;;;435.63;150.02;;;;;;;;;;5094600;28;20028;-65
2021/12/07 07:02:47;;;;;;;428.70;146.32;;;;;;;;;;5095094;28;20324;-65
2021/12/07 07:05:15;;;;;;;432.65;147.02;;;;;;;;;;5095359;28;20035;-66
2021/12/07 07:07:43;;;;;;;449.83;154.38;;;;;;;;;;5092598;28;20031;-66
2021/12/07 07:10:13;;;;;;;422.90;152.27;;;;;;;;;;5092303;28;20020;-66
2021/12/07 07:12:41;;;;;;;470.35;164.48;;;;;;;;;;5094965;28;20020;-66
2021/12/07 07:15:08;;;;;;;431.95;155.07;;;;;;;;;;5098891;28;20031;-66
2021/12/07 07:17:36;;;;;;;450.95;158.00;;;;;;;;;;5099622;28;20446;-66
2021/12/07 07:20:05;;;;;;;451.10;166.10;;;;;;;;;;5099174;28;20039;-66
2021/12/07 07:22:33;;;;;;;440.45;162.93;;;;;;;;;;5099442;28;20020;-66
2021/12/07 07:25:00;;;;;;;491.20;168.95;;;;;;;;;;5098498;28;20043;-67
2021/12/07 07:27:28;;;;;;;438.42;161.35;;;;;;;;;;5097971;28;20081;-67
2021/12/07 07:29:58;;;;;;;425.20;153.38;;;;;;;;;;5099117;28;20043;-67
2021/12/07 07:32:26;;;;;;;446.67;163.88;;;;;;;;;;5099021;28;20040;-67
2021/12/07 07:34:56;;;;;;;458.92;171.85;;;;;;;;;;5098731;28;20031;-64
2021/12/07 07:37:24;;;;;;;432.95;161.07;;;;;;;;;;5100334;28;20095;-67
2021/12/07 07:39:51;;;;;;;438.90;159.45;;;;;;;;;;5099000;28;20031;-66
2021/12/07 07:42:19;;;;;;;724.70;330.75;;;;;;;;;;5098701;28;20048;-67
2021/12/07 07:44:47;;;;;;;445.35;158.50;;;;;;;;;;5097437;28;20024;-66
2021/12/07 07:47:15;;;;;;;459.83;158.45;;;;;;;;;;5098997;28;20070;-67
2021/12/07 07:49:42;;;;;;;489.55;173.20;;;;;;;;;;5098661;28;20028;-66
2021/12/07 07:52:10;;;;;;;494.98;174.27;;;;;;;;;;5098891;28;20019;-67
2021/12/07 07:54:37;;;;;;;476.55;159.45;;;;;;;;;;5098570;28;20024;-67
2021/12/07 07:57:04;;;;;;;444.75;153.77;;;;;;;;;;5096489;28;20448;-67
2021/12/07 07:59:31;;;;;;;475.75;162.90;;;;;;;;;;5096558;28;20054;-65
2021/12/07 08:01:59;;;;;;;454.67;154.75;;;;;;;;;;5097944;28;20024;-65
2021/12/07 08:04:26;;;;;;;443.90;161.68;;;;;;;;;;5097438;28;20055;-69
2021/12/07 08:06:54;;;;;;;439.50;159.60;;;;;;;;;;5094339;28;20077;-68
2021/12/07 08:09:22;;;;;;;425.02;152.20;;;;;;;;;;5097590;28;20413;-70
2021/12/07 08:11:50;;;;;;;459.20;163.27;;;;;;;;;;5086926;28;20031;-69
2021/12/07 08:14:17;;;;;;;467.10;165.60;;;;;;;;;;5076786;28;20024;-71
2021/12/07 08:16:45;;;;;;;420.08;156.93;;;;;;;;;;5078102;28;20036;-68
2021/12/07 08:19:13;;;;;;;451.50;164.07;;;;;;;;;;5077927;28;20454;-69
2021/12/07 08:21:41;;;;;;;454.23;168.25;;;;;;;;;;5078005;28;20032;-67
2021/12/07 08:24:09;;;;;;;412.75;155.73;;;;;;;;;;5077344;28;20032;-68
2021/12/07 08:26:36;;;;;;;423.73;153.68;;;;;;;;;;5079005;28;20042;-69
2021/12/07 08:29:04;;;;;;;387.42;143.27;;;;;;;;;;5097486;28;20027;-68
2021/12/07 08:31:31;;;;;;;373.23;140.93;;;;;;;;;;5098623;28;20020;-67
2021/12/07 08:34:00;;;;;;;391.05;149.07;;;;;;;;;;5081110;28;20104;-68
2021/12/07 08:36:31;;;;;;;412.60;158.32;;;;;;;;;;5077598;28;20047;-72
2021/12/07 08:38:58;;;;;;;393.95;149.60;;;;;;;;;;5077897;28;20029;-69
2021/12/07 08:41:26;;;;;;;382.25;146.95;;;;;;;;;;5076878;28;20090;-67
2021/12/07 08:43:54;;;;;;;388.58;148.65;;;;;;;;;;5077504;28;20449;-73
2021/12/07 08:46:22;;;;;;;389.70;148.60;;;;;;;;;;5094675;28;20377;-68
2021/12/07 08:48:49;;;;;;;396.58;155.45;;;;;;;;;;5097948;28;20032;-67
2021/12/07 08:51:18;;;;;;;479.88;183.02;;;;;;;;;;5099111;28;20046;-67
2021/12/07 08:53:55;;;;;;;434.13;172.20;;;;;;;;;;5097765;28;20028;-67
2021/12/07 09:01:57;;;;;;;410.92;167.70;;;;;;;;;;5097689;28;20421;-68
2021/12/07 09:04:25;;;;;;;447.88;192.73;;;;;;;;;;5096963;28;20030;-67
2021/12/07 09:06:53;;;;;;;370.13;149.95;;;;;;;;;;5096494;28;20094;-67
2021/12/07 09:09:20;;;;;;;367.15;151.18;;;;;;;;;;5096192;28;20048;-71
2021/12/07 09:11:48;;;;;;;632.22;288.38;;;;;;;;;;5096610;28;20035;-68
2021/12/07 09:14:18;;;;;;;613.60;287.05;;;;;;;;;;5096517;28;20020;-67
2021/12/07 09:16:46;;;;;;;427.42;176.85;;;;;;;;;;5096799;28;20077;-67
2021/12/07 09:19:13;;;;;;;377.88;155.57;;;;;;;;;;5100100;28;20024;-69
2021/12/07 09:21:43;;;;;;;380.80;151.80;;;;;;;;;;5085985;28;20025;-69
2021/12/07 09:24:10;;;;;;;367.48;152.38;;;;;;;;;;5076216;28;20029;-67
2021/12/07 09:26:38;;;;;;;360.40;151.10;;;;;;;;;;5076292;28;20037;-69
2021/12/07 09:29:06;;;;;;;354.13;153.23;;;;;;;;;;5075824;28;20024;-68
2021/12/07 09:31:34;;;;;;;374.30;158.55;;;;;;;;;;5075768;28;20032;-66
2021/12/07 09:34:06;;;;;;;379.10;161.20;;;;;;;;;;5075560;28;20074;-67
2021/12/07 09:36:34;;;;;;;430.98;178.30;;;;;;;;;;5079746;28;20016;-66
2021/12/07 09:39:04;;;;;;;397.35;174.52;;;;;;;;;;5077714;28;20044;-67
2021/12/07 09:41:32;;;;;;;395.45;170.52;;;;;;;;;;5075781;28;20081;-67
2021/12/07 09:43:59;;;;;;;374.98;170.88;;;;;;;;;;5076181;28;20031;-65
2021/12/07 09:46:27;;;;;;;383.17;169.60;;;;;;;;;;5076788;28;20028;-66
2021/12/07 09:48:55;;;;;;;397.15;185.02;;;;;;;;;;5075640;28;20424;-67
2021/12/07 09:51:24;;;;;;;407.67;188.30;;;;;;;;;;5076006;28;20444;-66
2021/12/07 09:53:52;;;;;;;381.25;175.10;;;;;;;;;;5075679;28;20106;-65
2021/12/07 09:56:21;;;;;;;383.33;177.98;;;;;;;;;;5076626;28;20053;-67
2021/12/07 09:58:49;;;;;;;378.63;175.15;;;;;;;;;;5072810;28;20139;-68
2021/12/07 10:01:18;;;;;;;395.60;184.45;;;;;;;;;;5070908;28;20113;-66
2021/12/07 10:03:49;;;;;;;408.13;186.20;;;;;;;;;;5072592;28;20118;-66
2021/12/07 10:06:17;;;;;;;436.90;202.30;;;;;;;;;;5076812;28;20029;-67
2021/12/07 10:08:44;;;;;;;443.20;204.82;;;;;;;;;;5076528;28;20117;-66
2021/12/07 10:11:12;;;;;;;404.33;192.10;;;;;;;;;;5075565;28;20433;-67
2021/12/07 10:13:41;;;;;;;394.65;190.68;;;;;;;;;;5077568;28;20017;-69
2021/12/07 10:16:09;;;;;;;399.58;186.13;;;;;;;;;;5075340;28;20020;-68
2021/12/07 10:18:38;;;;;;;414.23;190.57;;;;;;;;;;5094875;28;20024;-68
2021/12/07 10:21:13;;;;;;;457.65;217.73;;;;;;;;;;5096368;28;20040;-69
2021/12/07 10:23:49;;;;;;;434.58;203.80;;;;;;;;;;5095860;28;20097;-67
2021/12/07 10:26:23;;;;;;;406.13;203.25;;;;;;;;;;5094656;28;20031;-67
2021/12/07 10:28:58;;;;;;;422.70;201.15;;;;;;;;;;5095756;28;20028;-67
2021/12/07 10:31:33;;;;;;;373.05;170.40;;;;;;;;;;5095138;28;20097;-67
2021/12/07 10:34:06;;;;;;;366.55;167.88;;;;;;;;;;5096627;28;20027;-68
2021/12/07 10:36:41;;;;;;;375.10;173.65;;;;;;;;;;5084611;28;20012;-67
2021/12/07 10:39:18;;;;;;;365.75;169.20;;;;;;;;;;5094969;28;20032;-66
2021/12/07 10:41:51;;;;;;;349.38;161.25;;;;;;;;;;5087892;28;20198;-68
2021/12/07 10:44:20;;;;;;;386.65;183.95;;;;;;;;;;5096375;28;20464;-67
2021/12/07 10:47:00;;;;;;;497.30;245.50;;;;;;;;;;5096797;28;20460;-68
2021/12/07 10:49:46;;;;;;;481.45;240.15;;;;;;;;;;5094769;28;20111;-69
2021/12/07 10:52:29;;;;;;;442.38;211.70;;;;;;;;;;5096896;28;20320;-68
2021/12/07 10:55:05;;;;;;;450.63;215.88;;;;;;;;;;5095037;28;20047;-66
2021/12/07 10:57:45;;;;;;;478.67;221.43;;;;;;;;;;5096110;28;20040;-69
2021/12/07 11:00:26;;;;;;;500.15;238.88;;;;;;;;;;5096012;28;20040;-68
2021/12/07 11:03:04;;;;;;;508.63;249.38;;;;;;;;;;5094950;28;20073;-68
2021/12/07 11:05:53;;;;;;;526.17;287.58;;;;;;;;;;5095919;28;20020;-68
2021/12/07 11:08:22;;;;;;;500.90;258.38;;;;;;;;;;5095752;28;20020;-69
2021/12/07 11:10:56;;;;;;;565.53;293.38;;;;;;;;;;5095750;28;20073;-71
2021/12/07 11:13:33;;;;;;;559.30;294.70;;;;;;;;;;5096280;28;20027;-69
2021/12/07 11:16:03;;;;;;;578.08;307.98;;;;;;;;;;5096096;28;20035;-68
2021/12/07 11:18:33;;;;;;;556.55;297.73;;;;;;;;;;5096013;28;20028;-69
2021/12/07 11:21:10;;;;;;;508.00;258.73;;;;;;;;;;5095623;28;20028;-67
2021/12/07 11:23:40;;;;;;;533.10;274.77;;;;;;;;;;5094550;28;20075;-69
2021/12/07 11:31:34;;;;;;;512.33;267.40;;;;;;;;;;5095852;28;20497;-67
2021/12/07 11:34:17;;;;;;;482.88;248.07;;;;;;;;;;5094991;28;20058;-69
2021/12/07 11:36:46;;;;;;;453.63;225.50;;;;;;;;;;5096055;28;20416;-68
2021/12/07 11:39:31;;;;;;;436.83;216.02;;;;;;;;;;5095755;28;20031;-69
2021/12/07 11:42:04;;;;;;;427.40;207.73;;;;;;;;;;5095824;28;20048;-69
2021/12/07 11:44:33;;;;;;;460.55;224.30;;;;;;;;;;5096423;28;20282;-69
2021/12/07 11:47:08;;;;;;;547.92;265.83;;;;;;;;;;5095612;28;20099;-69
2021/12/07 11:49:37;;;;;;;577.33;297.70;;;;;;;;;;5095551;28;20039;-69
2021/12/07 11:52:05;;;;;;;549.60;285.55;;;;;;;;;;5095752;28;20417;-69
2021/12/07 11:54:34;;;;;;;553.83;290.42;;;;;;;;;;5094091;28;20035;-68
2021/12/07 11:57:02;;;;;;;562.47;295.30;;;;;;;;;;5094128;28;20042;-68
2021/12/07 11:59:29;;;;;;;583.85;315.55;;;;;;;;;;5094851;28;20101;-68
2021/12/07 12:01:57;;;;;;;491.50;246.15;;;;;;;;;;5097624;28;20024;-69
2021/12/07 12:04:25;;;;;;;438.95;211.90;;;;;;;;;;5099438;28;20099;-67
2021/12/07 12:06:54;;;;;;;433.90;212.77;;;;;;;;;;5099468;28;20024;-68
2021/12/07 12:09:23;;;;;;;446.88;217.90;;;;;;;;;;5099223;28;20103;-69
2021/12/07 12:12:17;;;;;;;557.28;299.98;;;;;;;;;;5098588;28;20048;-69
2021/12/07 12:14:59;;;;;;;621.08;334.85;;;;;;;;;;5100961;28;20134;-69
2021/12/07 12:17:43;;;;;;;671.40;366.02;;;;;;;;;;5099457;28;20021;-69
2021/12/07 12:20:30;;;;;;;568.20;291.20;;;;;;;;;;5098930;28;20040;-68
2021/12/07 12:23:16;;;;;;;480.17;235.18;;;;;;;;;;5099322;28;20028;-67
2021/12/07 12:25:54;;;;;;;456.98;222.02;;;;;;;;;;5099872;28;20075;-68
2021/12/07 12:28:26;;;;;;;447.05;224.65;;;;;;;;;;5098455;28;20118;-68
2021/12/07 12:30:54;;;;;;;456.35;231.30;;;;;;;;;;5099452;28;20355;-69
2021/12/07 12:33:21;;;;;;;443.70;222.38;;;;;;;;;;5098619;28;20020;-68
2021/12/07 12:35:54;;;;;;;469.70;233.50;;;;;;;;;;5099367;28;20017;-69
2021/12/07 12:38:27;;;;;;;498.85;243.88;;;;;;;;;;5099008;28;20055;-68
2021/12/07 12:41:07;;;;;;;562.90;285.40;;;;;;;;;;5098727;28;20097;-69
2021/12/07 12:43:36;;;;;;;549.72;290.13;;;;;;;;;;5101540;28;20028;-68
2021/12/07 12:46:04;;;;;;;519.72;260.88;;;;;;;;;;5101565;28;20100;-68
2021/12/07 12:48:35;;;;;;;520.85;268.23;;;;;;;;;;5100662;28;20093;-69
2021/12/07 12:51:04;;;;;;;504.35;267.95;;;;;;;;;;5099877;28;20107;-69
2021/12/07 12:53:35;;;;;;;631.40;332.52;;;;;;;;;;5098592;28;20030;-68
2021/12/07 12:56:07;;;;;;;578.85;304.58;;;;;;;;;;5099108;28;20035;-69
2021/12/07 12:58:35;;;;;;;529.67;274.10;;;;;;;;;;5098613;28;20044;-69
2021/12/07 13:01:22;;;;;;;520.83;258.38;;;;;;;;;;5098886;28;20085;-69
2021/12/07 13:04:06;;;;;;;497.00;237.80;;;;;;;;;;5098516;28;20028;-68
2021/12/07 13:06:48;;;;;;;468.98;228.30;;;;;;;;;;5097164;28;20077;-68
2021/12/07 13:09:23;;;;;;;476.88;232.07;;;;;;;;;;5099438;28;20047;-67
2021/12/07 13:12:03;;;;;;;467.95;224.07;;;;;;;;;;5098600;28;20047;-68
2021/12/07 13:14:49;;;;;;;408.10;189.35;;;;;;;;;;5097211;28;20026;-68
2021/12/07 13:17:49;;;;;;;368.85;165.18;;;;;;;;;;5097501;28;20016;-68
2021/12/07 13:20:31;;;;;;;306.58;132.80;;;;;;;;;;5037186;28;20034;-67
2021/12/07 13:23:09;;;;;;;269.83;110.35;;;;;;;;;;5036590;28;20064;-68
2021/12/07 13:25:42;;;;;;;267.92;111.47;;;;;;;;;;5039377;28;20021;-69
2021/12/07 13:28:26;;;;;;;259.30;110.57;;;;;;;;;;5041018;28;20032;-69
2021/12/07 13:31:04;;;;;;;505.80;244.15;;;;;;;;;;5022822;28;20029;-69
2021/12/07 13:33:38;;;;;;;462.88;232.73;;;;;;;;;;5041757;28;20093;-69
2021/12/07 13:36:24;;;;;;;541.88;286.30;;;;;;;;;;5039707;28;20339;-69
2021/12/07 13:38:52;;;;;;;496.92;249.45;;;;;;;;;;5041832;28;20327;-69
2021/12/07 13:41:22;;;;;;;526.70;267.50;;;;;;;;;;5041291;28;20041;-69
2021/12/07 13:43:51;;;;;;;534.22;275.25;;;;;;;;;;5041447;28;20088;-69
2021/12/07 13:46:33;;;;;;;572.58;293.17;;;;;;;;;;5041738;28;20030;-69
2021/12/07 13:49:09;;;;;;;451.25;219.05;;;;;;;;;;5043845;28;20046;-70
2021/12/07 13:51:38;;;;;;;525.53;258.42;;;;;;;;;;5043380;28;20372;-70
2021/12/07 13:54:08;;;;;;;533.65;266.92;;;;;;;;;;5043719;28;20170;-70
2021/12/07 13:56:38;;;;;;;564.35;294.13;;;;;;;;;;5052384;28;20091;-69
2021/12/07 13:59:11;;;;;;;560.47;298.48;;;;;;;;;;5064750;28;20068;-70
2021/12/07 14:01:40;;;;;;;557.53;295.25;;;;;;;;;;5007600;28;20172;-68
2021/12/07 14:04:09;;;;;;;549.60;276.70;;;;;;;;;;5024842;28;20129;-69
2021/12/07 14:06:37;;;;;;;559.97;290.80;;;;;;;;;;5023623;28;20064;-68
2021/12/07 14:09:06;;;;;;;552.08;282.92;;;;;;;;;;5022929;28;20041;-68
2021/12/07 14:11:35;;;;;;;536.15;266.33;;;;;;;;;;5019063;28;20088;-69
2021/12/07 14:14:07;;;;;;;543.45;282.08;;;;;;;;;;5020544;28;20042;-69
2021/12/07 14:16:35;;;;;;;522.47;265.00;;;;;;;;;;5019737;28;20179;-68
2021/12/07 14:19:03;;;;;;;473.73;228.70;;;;;;;;;;5020251;28;20025;-69
2021/12/07 14:21:31;;;;;;;415.92;196.70;;;;;;;;;;5021022;28;20041;-68
2021/12/07 14:24:06;;;;;;;412.08;202.98;;;;;;;;;;5016517;28;20080;-68
2021/12/07 14:26:36;;;;;;;376.52;170.15;;;;;;;;;;5016692;28;20036;-69
2021/12/07 14:29:06;;;;;;;395.90;183.45;;;;;;;;;;5016531;28;20026;-67
2021/12/07 14:31:42;;;;;;;387.13;179.20;;;;;;;;;;5015925;28;20034;-69
2021/12/07 14:34:17;;;;;;;385.05;175.55;;;;;;;;;;5041694;28;20092;-68
2021/12/07 14:39:29;;;;;;;365.92;172.23;;;;;;;;;;5668130;22;20232;-70
2021/12/07 14:41:59;;;;;;;376.52;167.30;;;;;;;;;;5095331;28;20102;-69
2021/12/07 14:44:28;;;;;;;351.23;161.70;;;;;;;;;;5096246;28;20020;-68
2021/12/07 14:46:57;;;;;;;326.13;147.98;;;;;;;;;;5095000;28;20024;-69
2021/12/07 14:49:26;;;;;;;336.55;147.70;;;;;;;;;;5095923;28;20016;-69
2021/12/07 14:51:54;;;;;;;301.17;140.02;;;;;;;;;;5096202;28;20024;-69
2021/12/07 14:54:21;;;;;;;474.65;193.63;;;;;;;;;;5096034;28;20095;-69
2021/12/07 14:56:49;;;;;;;623.60;276.10;;;;;;;;;;5095852;28;20027;-67
2021/12/07 14:59:18;;;;;;;346.20;144.48;;;;;;;;;;5095922;28;20095;-67
2021/12/07 15:01:53;;;;;;;355.50;157.32;;;;;;;;;;5095994;28;20477;-68
2021/12/07 15:04:22;;;;;;;163.38;69.22;;;;;;;;;;5095932;28;20035;-68
2021/12/07 15:06:51;;;;;;;126.53;52.50;;;;;;;;;;5094699;28;20020;-68
2021/12/07 15:09:22;;;;;;;112.07;47.60;;;;;;;;;;5095636;28;20038;-68
2021/12/07 15:11:50;;;;;;;122.00;52.38;;;;;;;;;;5095620;28;20065;-68
2021/12/07 15:14:23;;;;;;;119.00;49.85;;;;;;;;;;5095628;28;20091;-68
2021/12/07 15:16:53;;;;;;;93.57;44.08;;;;;;;;;;5095689;28;20065;-68
2021/12/07 15:19:21;;;;;;;76.90;35.95;;;;;;;;;;5094287;28;20328;-66
2021/12/07 15:21:49;;;;;;;70.68;30.42;;;;;;;;;;5095324;28;20028;-68
2021/12/07 15:24:18;;;;;;;78.13;32.90;;;;;;;;;;5095184;28;20028;-68
2021/12/07 15:26:47;;;;;;;82.07;32.92;;;;;;;;;;5095292;28;20324;-68
2021/12/07 15:29:25;;;;;;;71.88;26.98;;;;;;;;;;5094178;28;20036;-68
2021/12/07 15:31:57;;;;;;;59.65;24.40;;;;;;;;;;5094223;28;20024;-68
2021/12/07 15:34:27;;;;;;;53.47;21.30;;;;;;;;;;5094911;28;20062;-67
2021/12/07 15:37:10;;;;;;;51.33;20.42;;;;;;;;;;5098060;28;20020;-68
2021/12/07 15:39:38;;;;;;;47.67;18.25;;;;;;;;;;5098351;28;20080;-68
2021/12/07 15:42:10;;;;;;;56.78;18.55;;;;;;;;;;5098474;28;20107;-69
2021/12/07 15:44:40;;;;;;;55.65;22.08;;;;;;;;;;5099521;28;20020;-68
2021/12/07 15:47:16;;;;;;;56.65;25.20;;;;;;;;;;5099357;28;20050;-67
2021/12/07 15:49:48;;;;;;;55.47;22.45;;;;;;;;;;5099411;28;20103;-67
2021/12/07 15:52:16;;;;;;;55.65;20.40;;;;;;;;;;5099291;28;20024;-67
2021/12/07 15:55:00;;;;;;;48.38;18.88;;;;;;;;;;5098086;28;20477;-67
2021/12/07 15:57:28;;;;;;;53.63;20.85;;;;;;;;;;5097933;28;20020;-68
2021/12/07 15:59:59;;;;;;;55.53;20.30;;;;;;;;;;5098110;28;20367;-68
2021/12/07 16:02:29;;;;;;;58.40;22.75;;;;;;;;;;5098078;28;20061;-68
2021/12/07 16:05:11;;;;;;;76.55;29.67;;;;;;;;;;5099001;28;20035;-68
2021/12/07 16:07:49;;;;;;;73.60;31.55;;;;;;;;;;5099222;28;20408;-68
2021/12/07 16:10:25;;;;;;;69.25;30.20;;;;;;;;;;5098990;28;20024;-68